CheckWX is a tool to help pilots better visualize weather data.  It is not intended as a substitute for an official pre-flight weather briefing.

12:51:11 UTC

EHDV METAR
D15-fa-1 Sea
D15-fa-1 Sea, The Netherlands
Current

26 mins ago

EHDV 181225Z AUTO 22025KT 170V270 9999 NSC 08/06 Q1012 W///H///
Observed
Feb-18 @ 12:25 UTC
Wind
  • 220° at 25 KTS
Visibility
10,000+ meters
Flight Rules
VFR
Cloud Levels
  • Clear skies
Temperature
C / 46°F
Dewpoint
C / 43°F
Humidity
87%
Altimeter
29.88" Hg
Pressure
1011.92 hPa
Previous

56 mins ago

EHDV 181155Z AUTO 22025KT 170V270 9999 NSC 08/06 Q1012 W///H///
Observed
Feb-18 @ 11:55 UTC
Wind
  • 220° at 25 KTS
Visibility
10,000+ meters
Flight Rules
VFR
Cloud Levels
  • Clear skies
Temperature
C / 46°F
Dewpoint
C / 43°F
Humidity
87%
Altimeter
29.88" Hg
Pressure
1011.92 hPa
Previous

1 hour ago

EHDV 181125Z AUTO 21025KT 170V250 9999 NSC 08/06 Q1012 W///H///
Observed
Feb-18 @ 11:25 UTC
Wind
  • 210° at 25 KTS
Visibility
10,000+ meters
Flight Rules
VFR
Cloud Levels
  • Clear skies
Temperature
C / 46°F
Dewpoint
C / 43°F
Humidity
87%
Altimeter
29.88" Hg
Pressure
1011.92 hPa